sensor_id;sensor_type;location;lat;lon;timestamp;temperature;humidity
40023;DHT22;25713;-35.352;149.036;2022-08-16T00:01:54;10.30;91.80
40023;DHT22;25713;-35.352;149.036;2022-08-16T00:04:25;10.30;91.60
40023;DHT22;25713;-35.352;149.036;2022-08-16T00:06:56;10.30;91.70
40023;DHT22;25713;-35.352;149.036;2022-08-16T00:09:26;10.30;90.90
40023;DHT22;25713;-35.352;149.036;2022-08-16T00:11:56;10.30;91.30
40023;DHT22;25713;-35.352;149.036;2022-08-16T00:14:29;10.40;91.10
40023;DHT22;25713;-35.352;149.036;2022-08-16T00:17:01;10.30;90.80
40023;DHT22;25713;-35.352;149.036;2022-08-16T00:19:33;10.30;90.70
40023;DHT22;25713;-35.352;149.036;2022-08-16T00:22:04;10.30;90.80
40023;DHT22;25713;-35.352;149.036;2022-08-16T00:24:33;10.40;90.90
40023;DHT22;25713;-35.352;149.036;2022-08-16T00:27:05;10.40;91.00
40023;DHT22;25713;-35.352;149.036;2022-08-16T00:29:35;10.40;90.10
40023;DHT22;25713;-35.352;149.036;2022-08-16T00:32:07;10.40;89.00
40023;DHT22;25713;-35.352;149.036;2022-08-16T00:34:36;10.40;89.80
40023;DHT22;25713;-35.352;149.036;2022-08-16T00:37:06;10.50;90.40
40023;DHT22;25713;-35.352;149.036;2022-08-16T00:39:36;10.50;90.60
40023;DHT22;25713;-35.352;149.036;2022-08-16T00:42:06;10.60;90.50
40023;DHT22;25713;-35.352;149.036;2022-08-16T00:44:36;10.60;90.00
40023;DHT22;25713;-35.352;149.036;2022-08-16T00:47:12;10.70;90.50
40023;DHT22;25713;-35.352;149.036;2022-08-16T00:49:45;10.70;90.90
40023;DHT22;25713;-35.352;149.036;2022-08-16T00:52:15;10.70;90.60
40023;DHT22;25713;-35.352;149.036;2022-08-16T00:54:45;10.80;90.80
40023;DHT22;25713;-35.352;149.036;2022-08-16T00:57:15;10.80;91.00
40023;DHT22;25713;-35.352;149.036;2022-08-16T00:59:45;10.80;90.20
40023;DHT22;25713;-35.352;149.036;2022-08-16T01:02:17;10.80;90.30
40023;DHT22;25713;-35.352;149.036;2022-08-16T01:04:46;10.90;90.50
40023;DHT22;25713;-35.352;149.036;2022-08-16T01:07:16;11.00;90.50
40023;DHT22;25713;-35.352;149.036;2022-08-16T01:09:45;10.90;90.70
40023;DHT22;25713;-35.352;149.036;2022-08-16T01:12:15;11.00;90.10
40023;DHT22;25713;-35.352;149.036;2022-08-16T01:14:47;11.10;90.70
40023;DHT22;25713;-35.352;149.036;2022-08-16T01:17:21;11.10;90.60
40023;DHT22;25713;-35.352;149.036;2022-08-16T01:19:55;11.10;90.60
40023;DHT22;25713;-35.352;149.036;2022-08-16T01:22:30;11.10;91.10
40023;DHT22;25713;-35.352;149.036;2022-08-16T01:25:06;11.10;89.20
40023;DHT22;25713;-35.352;149.036;2022-08-16T01:27:38;11.10;89.60
40023;DHT22;25713;-35.352;149.036;2022-08-16T01:30:12;11.10;90.00
40023;DHT22;25713;-35.352;149.036;2022-08-16T01:32:42;11.20;90.50
40023;DHT22;25713;-35.352;149.036;2022-08-16T01:35:17;11.20;88.70
40023;DHT22;25713;-35.352;149.036;2022-08-16T01:37:51;11.30;89.80
40023;DHT22;25713;-35.352;149.036;2022-08-16T01:40:28;11.30;88.40
40023;DHT22;25713;-35.352;149.036;2022-08-16T01:42:58;11.20;89.00
40023;DHT22;25713;-35.352;149.036;2022-08-16T01:45:28;11.30;90.20
40023;DHT22;25713;-35.352;149.036;2022-08-16T01:47:57;11.40;90.00
40023;DHT22;25713;-35.352;149.036;2022-08-16T01:50:28;11.40;89.90
40023;DHT22;25713;-35.352;149.036;2022-08-16T01:52:57;11.40;90.10
40023;DHT22;25713;-35.352;149.036;2022-08-16T01:55:36;11.30;90.10
40023;DHT22;25713;-35.352;149.036;2022-08-16T01:58:06;11.40;89.80
40023;DHT22;25713;-35.352;149.036;2022-08-16T02:00:36;11.50;90.20
40023;DHT22;25713;-35.352;149.036;2022-08-16T02:03:07;11.40;89.20
40023;DHT22;25713;-35.352;149.036;2022-08-16T02:05:36;11.40;88.70
40023;DHT22;25713;-35.352;149.036;2022-08-16T02:08:07;11.50;89.80
40023;DHT22;25713;-35.352;149.036;2022-08-16T02:10:39;11.60;88.90
40023;DHT22;25713;-35.352;149.036;2022-08-16T02:13:09;11.60;87.60
40023;DHT22;25713;-35.352;149.036;2022-08-16T02:15:41;11.60;89.30
40023;DHT22;25713;-35.352;149.036;2022-08-16T02:18:12;11.70;90.10
40023;DHT22;25713;-35.352;149.036;2022-08-16T02:20:44;11.60;87.90
40023;DHT22;25713;-35.352;149.036;2022-08-16T02:23:15;11.60;88.80
40023;DHT22;25713;-35.352;149.036;2022-08-16T02:25:48;11.70;89.00
40023;DHT22;25713;-35.352;149.036;2022-08-16T02:28:17;11.80;86.70
40023;DHT22;25713;-35.352;149.036;2022-08-16T02:30:47;11.80;87.70
40023;DHT22;25713;-35.352;149.036;2022-08-16T02:33:16;11.90;87.60
40023;DHT22;25713;-35.352;149.036;2022-08-16T02:35:46;11.90;87.00
40023;DHT22;25713;-35.352;149.036;2022-08-16T02:38:15;12.00;88.30
40023;DHT22;25713;-35.352;149.036;2022-08-16T02:40:47;12.00;88.30
40023;DHT22;25713;-35.352;149.036;2022-08-16T02:43:16;12.00;88.60
40023;DHT22;25713;-35.352;149.036;2022-08-16T02:45:47;12.00;88.00
40023;DHT22;25713;-35.352;149.036;2022-08-16T02:48:16;11.90;87.80
40023;DHT22;25713;-35.352;149.036;2022-08-16T02:50:46;11.90;87.40
40023;DHT22;25713;-35.352;149.036;2022-08-16T02:53:15;11.90;88.90
40023;DHT22;25713;-35.352;149.036;2022-08-16T02:55:47;12.00;89.10
40023;DHT22;25713;-35.352;149.036;2022-08-16T02:58:16;12.10;87.60
40023;DHT22;25713;-35.352;149.036;2022-08-16T03:00:46;12.10;88.40
40023;DHT22;25713;-35.352;149.036;2022-08-16T03:03:15;12.20;88.30
40023;DHT22;25713;-35.352;149.036;2022-08-16T03:05:45;12.10;87.30
40023;DHT22;25713;-35.352;149.036;2022-08-16T03:08:14;12.20;87.80
40023;DHT22;25713;-35.352;149.036;2022-08-16T03:10:47;12.30;88.00
40023;DHT22;25713;-35.352;149.036;2022-08-16T03:13:19;12.40;88.30
40023;DHT22;25713;-35.352;149.036;2022-08-16T03:15:48;12.30;86.80
40023;DHT22;25713;-35.352;149.036;2022-08-16T03:18:19;12.20;86.90
40023;DHT22;25713;-35.352;149.036;2022-08-16T03:20:49;12.20;86.50
40023;DHT22;25713;-35.352;149.036;2022-08-16T03:23:22;12.10;87.70
40023;DHT22;25713;-35.352;149.036;2022-08-16T03:25:53;12.10;86.60
40023;DHT22;25713;-35.352;149.036;2022-08-16T03:28:23;12.20;88.70
40023;DHT22;25713;-35.352;149.036;2022-08-16T03:30:53;12.20;88.70
40023;DHT22;25713;-35.352;149.036;2022-08-16T03:33:24;12.30;88.80
40023;DHT22;25713;-35.352;149.036;2022-08-16T03:35:55;12.40;88.50
40023;DHT22;25713;-35.352;149.036;2022-08-16T03:38:29;12.40;88.10
40023;DHT22;25713;-35.352;149.036;2022-08-16T03:41:05;12.40;87.50
40023;DHT22;25713;-35.352;149.036;2022-08-16T03:43:36;12.40;88.50
40023;DHT22;25713;-35.352;149.036;2022-08-16T03:46:06;12.50;85.90
40023;DHT22;25713;-35.352;149.036;2022-08-16T03:48:39;12.50;86.40
40023;DHT22;25713;-35.352;149.036;2022-08-16T03:51:17;12.50;85.50
40023;DHT22;25713;-35.352;149.036;2022-08-16T03:53:52;12.50;84.30
40023;DHT22;25713;-35.352;149.036;2022-08-16T03:56:24;12.50;84.40
40023;DHT22;25713;-35.352;149.036;2022-08-16T03:58:54;12.40;85.90
40023;DHT22;25713;-35.352;149.036;2022-08-16T04:01:28;12.40;87.20
40023;DHT22;25713;-35.352;149.036;2022-08-16T04:03:58;12.30;87.60
40023;DHT22;25713;-35.352;149.036;2022-08-16T04:06:27;12.30;88.40
40023;DHT22;25713;-35.352;149.036;2022-08-16T04:08:57;12.30;87.20
40023;DHT22;25713;-35.352;149.036;2022-08-16T04:11:28;12.30;88.00
40023;DHT22;25713;-35.352;149.036;2022-08-16T04:13:59;12.20;88.70
40023;DHT22;25713;-35.352;149.036;2022-08-16T04:16:31;12.20;89.20
40023;DHT22;25713;-35.352;149.036;2022-08-16T04:19:13;12.10;89.30
40023;DHT22;25713;-35.352;149.036;2022-08-16T04:21:43;12.00;89.70
40023;DHT22;25713;-35.352;149.036;2022-08-16T04:24:12;12.00;90.30
40023;DHT22;25713;-35.352;149.036;2022-08-16T04:26:44;12.10;90.30
40023;DHT22;25713;-35.352;149.036;2022-08-16T04:29:14;12.10;90.00
40023;DHT22;25713;-35.352;149.036;2022-08-16T04:31:45;12.00;88.20
40023;DHT22;25713;-35.352;149.036;2022-08-16T04:34:15;12.00;90.00
40023;DHT22;25713;-35.352;149.036;2022-08-16T04:36:46;12.00;88.90
40023;DHT22;25713;-35.352;149.036;2022-08-16T04:39:16;11.90;90.00
40023;DHT22;25713;-35.352;149.036;2022-08-16T04:41:49;11.90;90.10
40023;DHT22;25713;-35.352;149.036;2022-08-16T04:44:18;12.00;90.70
40023;DHT22;25713;-35.352;149.036;2022-08-16T04:46:48;12.00;90.70
40023;DHT22;25713;-35.352;149.036;2022-08-16T04:49:17;12.00;90.30
40023;DHT22;25713;-35.352;149.036;2022-08-16T04:51:47;12.00;90.20
40023;DHT22;25713;-35.352;149.036;2022-08-16T04:54:16;12.10;90.30
40023;DHT22;25713;-35.352;149.036;2022-08-16T04:56:48;12.10;90.40
40023;DHT22;25713;-35.352;149.036;2022-08-16T04:59:18;12.10;90.70
40023;DHT22;25713;-35.352;149.036;2022-08-16T05:01:47;12.10;89.70
40023;DHT22;25713;-35.352;149.036;2022-08-16T05:04:17;12.10;91.20
40023;DHT22;25713;-35.352;149.036;2022-08-16T05:06:47;12.10;91.70
40023;DHT22;25713;-35.352;149.036;2022-08-16T05:09:30;12.10;92.00
40023;DHT22;25713;-35.352;149.036;2022-08-16T05:12:03;12.10;92.30
40023;DHT22;25713;-35.352;149.036;2022-08-16T05:14:34;12.20;92.30
40023;DHT22;25713;-35.352;149.036;2022-08-16T05:17:04;12.20;92.50
40023;DHT22;25713;-35.352;149.036;2022-08-16T05:19:34;12.20;92.70
40023;DHT22;25713;-35.352;149.036;2022-08-16T05:22:13;12.20;92.20
40023;DHT22;25713;-35.352;149.036;2022-08-16T05:24:44;12.20;91.00
40023;DHT22;25713;-35.352;149.036;2022-08-16T05:27:15;12.20;91.40
40023;DHT22;25713;-35.352;149.036;2022-08-16T05:29:45;12.20;91.40
40023;DHT22;25713;-35.352;149.036;2022-08-16T05:32:18;12.20;91.60
40023;DHT22;25713;-35.352;149.036;2022-08-16T05:34:48;12.20;90.80
40023;DHT22;25713;-35.352;149.036;2022-08-16T05:37:17;12.20;91.10
40023;DHT22;25713;-35.352;149.036;2022-08-16T05:39:50;12.20;91.60
40023;DHT22;25713;-35.352;149.036;2022-08-16T05:42:22;12.10;91.50
40023;DHT22;25713;-35.352;149.036;2022-08-16T05:44:51;12.10;92.40
40023;DHT22;25713;-35.352;149.036;2022-08-16T05:47:21;12.10;92.40
40023;DHT22;25713;-35.352;149.036;2022-08-16T05:49:51;12.10;92.40
40023;DHT22;25713;-35.352;149.036;2022-08-16T05:52:20;12.00;93.40
40023;DHT22;25713;-35.352;149.036;2022-08-16T05:54:50;11.90;94.00
40023;DHT22;25713;-35.352;149.036;2022-08-16T05:57:22;11.80;94.50
40023;DHT22;25713;-35.352;149.036;2022-08-16T05:59:53;11.80;94.70
40023;DHT22;25713;-35.352;149.036;2022-08-16T06:02:23;11.80;95.20
40023;DHT22;25713;-35.352;149.036;2022-08-16T06:04:53;11.80;95.20
40023;DHT22;25713;-35.352;149.036;2022-08-16T06:07:22;11.70;95.20
40023;DHT22;25713;-35.352;149.036;2022-08-16T06:09:56;11.80;95.30
40023;DHT22;25713;-35.352;149.036;2022-08-16T06:12:29;11.80;95.40
40023;DHT22;25713;-35.352;149.036;2022-08-16T06:15:07;11.80;95.40
40023;DHT22;25713;-35.352;149.036;2022-08-16T06:17:39;11.80;95.50
40023;DHT22;25713;-35.352;149.036;2022-08-16T06:20:11;11.90;95.50
40023;DHT22;25713;-35.352;149.036;2022-08-16T06:22:41;11.80;95.70
40023;DHT22;25713;-35.352;149.036;2022-08-16T06:25:11;11.90;95.80
40023;DHT22;25713;-35.352;149.036;2022-08-16T06:27:44;11.90;95.80
40023;DHT22;25713;-35.352;149.036;2022-08-16T06:30:14;11.90;95.80
40023;DHT22;25713;-35.352;149.036;2022-08-16T06:32:43;11.90;95.90
40023;DHT22;25713;-35.352;149.036;2022-08-16T06:35:14;11.90;95.80
40023;DHT22;25713;-35.352;149.036;2022-08-16T06:37:47;11.90;95.80
40023;DHT22;25713;-35.352;149.036;2022-08-16T06:40:17;11.90;95.80
40023;DHT22;25713;-35.352;149.036;2022-08-16T06:42:55;11.90;95.80
40023;DHT22;25713;-35.352;149.036;2022-08-16T06:45:37;11.90;95.80
40023;DHT22;25713;-35.352;149.036;2022-08-16T06:48:14;12.00;95.80
40023;DHT22;25713;-35.352;149.036;2022-08-16T06:50:44;11.90;95.90
40023;DHT22;25713;-35.352;149.036;2022-08-16T06:53:13;12.00;95.90
40023;DHT22;25713;-35.352;149.036;2022-08-16T06:55:56;12.00;95.90
40023;DHT22;25713;-35.352;149.036;2022-08-16T06:58:32;12.00;96.00
40023;DHT22;25713;-35.352;149.036;2022-08-16T07:01:07;12.00;96.00
40023;DHT22;25713;-35.352;149.036;2022-08-16T07:03:37;12.00;96.10
40023;DHT22;25713;-35.352;149.036;2022-08-16T07:06:09;11.90;96.10
40023;DHT22;25713;-35.352;149.036;2022-08-16T07:08:43;12.00;96.00
40023;DHT22;25713;-35.352;149.036;2022-08-16T07:11:14;11.90;96.00
40023;DHT22;25713;-35.352;149.036;2022-08-16T07:13:46;11.90;96.10
40023;DHT22;25713;-35.352;149.036;2022-08-16T07:16:17;11.80;96.10
40023;DHT22;25713;-35.352;149.036;2022-08-16T07:18:48;11.90;96.10
40023;DHT22;25713;-35.352;149.036;2022-08-16T07:21:17;11.90;96.10
40023;DHT22;25713;-35.352;149.036;2022-08-16T07:23:47;11.90;96.10
40023;DHT22;25713;-35.352;149.036;2022-08-16T07:26:22;11.90;96.10
40023;DHT22;25713;-35.352;149.036;2022-08-16T07:28:55;11.90;96.10
40023;DHT22;25713;-35.352;149.036;2022-08-16T07:31:25;11.90;96.10
40023;DHT22;25713;-35.352;149.036;2022-08-16T07:33:55;11.90;96.20
40023;DHT22;25713;-35.352;149.036;2022-08-16T07:36:30;11.90;96.20
40023;DHT22;25713;-35.352;149.036;2022-08-16T07:39:00;11.90;96.30
40023;DHT22;25713;-35.352;149.036;2022-08-16T07:41:35;11.90;96.40
40023;DHT22;25713;-35.352;149.036;2022-08-16T07:44:07;11.90;96.40
40023;DHT22;25713;-35.352;149.036;2022-08-16T07:46:36;11.90;96.50
40023;DHT22;25713;-35.352;149.036;2022-08-16T07:49:12;11.90;96.50
40023;DHT22;25713;-35.352;149.036;2022-08-16T07:51:43;11.90;96.50
40023;DHT22;25713;-35.352;149.036;2022-08-16T07:54:14;11.90;96.50
40023;DHT22;25713;-35.352;149.036;2022-08-16T07:56:47;11.90;96.60
40023;DHT22;25713;-35.352;149.036;2022-08-16T07:59:19;11.80;96.50
40023;DHT22;25713;-35.352;149.036;2022-08-16T08:01:48;11.90;96.50
40023;DHT22;25713;-35.352;149.036;2022-08-16T08:04:18;11.90;96.50
40023;DHT22;25713;-35.352;149.036;2022-08-16T08:06:48;11.90;96.40
40023;DHT22;25713;-35.352;149.036;2022-08-16T08:09:19;11.90;96.30
40023;DHT22;25713;-35.352;149.036;2022-08-16T08:11:50;11.90;96.30
40023;DHT22;25713;-35.352;149.036;2022-08-16T08:14:23;11.80;96.30
40023;DHT22;25713;-35.352;149.036;2022-08-16T08:16:53;11.80;96.20
40023;DHT22;25713;-35.352;149.036;2022-08-16T08:19:29;11.80;96.10
40023;DHT22;25713;-35.352;149.036;2022-08-16T08:21:59;11.80;96.10
40023;DHT22;25713;-35.352;149.036;2022-08-16T08:24:38;11.80;96.10
40023;DHT22;25713;-35.352;149.036;2022-08-16T08:27:09;11.80;96.10
40023;DHT22;25713;-35.352;149.036;2022-08-16T08:29:41;11.80;96.10
40023;DHT22;25713;-35.352;149.036;2022-08-16T08:32:13;11.80;96.20
40023;DHT22;25713;-35.352;149.036;2022-08-16T08:34:43;11.70;96.10
40023;DHT22;25713;-35.352;149.036;2022-08-16T08:37:12;11.70;96.20
40023;DHT22;25713;-35.352;149.036;2022-08-16T08:39:43;11.70;96.20
40023;DHT22;25713;-35.352;149.036;2022-08-16T08:42:13;11.70;96.20
40023;DHT22;25713;-35.352;149.036;2022-08-16T08:44:46;11.70;96.00
40023;DHT22;25713;-35.352;149.036;2022-08-16T08:47:16;11.70;96.20
40023;DHT22;25713;-35.352;149.036;2022-08-16T08:49:46;11.70;96.10
40023;DHT22;25713;-35.352;149.036;2022-08-16T08:52:16;11.70;96.10
40023;DHT22;25713;-35.352;149.036;2022-08-16T08:54:46;11.70;96.00
40023;DHT22;25713;-35.352;149.036;2022-08-16T08:57:15;11.70;96.00
40023;DHT22;25713;-35.352;149.036;2022-08-16T09:00:02;11.70;95.90
40023;DHT22;25713;-35.352;149.036;2022-08-16T09:02:32;11.70;95.90
40023;DHT22;25713;-35.352;149.036;2022-08-16T09:05:03;11.70;95.80
40023;DHT22;25713;-35.352;149.036;2022-08-16T09:07:33;11.70;95.80
40023;DHT22;25713;-35.352;149.036;2022-08-16T09:10:03;11.60;95.70
40023;DHT22;25713;-35.352;149.036;2022-08-16T09:12:35;11.60;95.70
40023;DHT22;25713;-35.352;149.036;2022-08-16T09:15:16;11.70;95.70
40023;DHT22;25713;-35.352;149.036;2022-08-16T09:17:48;11.60;95.70
40023;DHT22;25713;-35.352;149.036;2022-08-16T09:20:17;11.60;95.70
40023;DHT22;25713;-35.352;149.036;2022-08-16T09:22:47;11.60;95.60
40023;DHT22;25713;-35.352;149.036;2022-08-16T09:25:17;11.60;95.40
40023;DHT22;25713;-35.352;149.036;2022-08-16T09:27:46;11.60;95.60
40023;DHT22;25713;-35.352;149.036;2022-08-16T09:30:19;11.50;95.30
40023;DHT22;25713;-35.352;149.036;2022-08-16T09:32:50;11.50;95.50
40023;DHT22;25713;-35.352;149.036;2022-08-16T09:35:20;11.60;95.50
40023;DHT22;25713;-35.352;149.036;2022-08-16T09:37:49;11.50;95.40
40023;DHT22;25713;-35.352;149.036;2022-08-16T09:40:19;11.50;95.40
40023;DHT22;25713;-35.352;149.036;2022-08-16T09:42:48;11.50;95.30
40023;DHT22;25713;-35.352;149.036;2022-08-16T09:45:21;11.60;95.30
40023;DHT22;25713;-35.352;149.036;2022-08-16T09:47:51;11.50;95.30
40023;DHT22;25713;-35.352;149.036;2022-08-16T09:50:21;11.50;95.30
40023;DHT22;25713;-35.352;149.036;2022-08-16T09:52:50;11.50;95.30
40023;DHT22;25713;-35.352;149.036;2022-08-16T09:55:20;11.50;95.20
40023;DHT22;25713;-35.352;149.036;2022-08-16T09:57:49;11.50;95.00
40023;DHT22;25713;-35.352;149.036;2022-08-16T10:00:22;11.50;95.00
40023;DHT22;25713;-35.352;149.036;2022-08-16T10:02:52;11.50;95.10
40023;DHT22;25713;-35.352;149.036;2022-08-16T10:05:21;11.50;95.00
40023;DHT22;25713;-35.352;149.036;2022-08-16T10:07:51;11.50;94.90
40023;DHT22;25713;-35.352;149.036;2022-08-16T10:10:22;11.50;94.80
40023;DHT22;25713;-35.352;149.036;2022-08-16T10:12:51;11.50;94.80
40023;DHT22;25713;-35.352;149.036;2022-08-16T10:15:24;11.50;94.80
40023;DHT22;25713;-35.352;149.036;2022-08-16T10:17:58;11.50;94.70
40023;DHT22;25713;-35.352;149.036;2022-08-16T10:20:46;11.50;94.70
40023;DHT22;25713;-35.352;149.036;2022-08-16T10:23:20;11.50;94.70
40023;DHT22;25713;-35.352;149.036;2022-08-16T10:25:50;11.40;94.70
40023;DHT22;25713;-35.352;149.036;2022-08-16T10:28:21;11.40;94.70
40023;DHT22;25713;-35.352;149.036;2022-08-16T10:30:56;11.40;94.50
40023;DHT22;25713;-35.352;149.036;2022-08-16T10:33:27;11.40;94.50
40023;DHT22;25713;-35.352;149.036;2022-08-16T10:35:57;11.40;94.50
40023;DHT22;25713;-35.352;149.036;2022-08-16T10:38:27;11.40;94.50
40023;DHT22;25713;-35.352;149.036;2022-08-16T10:40:57;11.40;94.50
40023;DHT22;25713;-35.352;149.036;2022-08-16T10:43:27;11.40;94.50
40023;DHT22;25713;-35.352;149.036;2022-08-16T10:45:58;11.40;94.50
40023;DHT22;25713;-35.352;149.036;2022-08-16T10:48:28;11.40;94.50
40023;DHT22;25713;-35.352;149.036;2022-08-16T10:50:58;11.40;94.50
40023;DHT22;25713;-35.352;149.036;2022-08-16T10:53:29;11.40;94.50
40023;DHT22;25713;-35.352;149.036;2022-08-16T10:56:00;11.30;94.80
40023;DHT22;25713;-35.352;149.036;2022-08-16T10:58:31;11.40;94.50
40023;DHT22;25713;-35.352;149.036;2022-08-16T11:01:04;11.30;94.50
40023;DHT22;25713;-35.352;149.036;2022-08-16T11:03:34;11.40;94.50
40023;DHT22;25713;-35.352;149.036;2022-08-16T11:06:05;11.40;94.50
40023;DHT22;25713;-35.352;149.036;2022-08-16T11:08:36;11.30;94.50
40023;DHT22;25713;-35.352;149.036;2022-08-16T11:11:06;11.30;94.50
40023;DHT22;25713;-35.352;149.036;2022-08-16T11:13:36;11.30;94.40
40023;DHT22;25713;-35.352;149.036;2022-08-16T11:16:07;11.30;94.30
40023;DHT22;25713;-35.352;149.036;2022-08-16T11:18:37;11.30;94.30
40023;DHT22;25713;-35.352;149.036;2022-08-16T11:21:07;11.30;94.30
40023;DHT22;25713;-35.352;149.036;2022-08-16T11:23:36;11.30;94.10
40023;DHT22;25713;-35.352;149.036;2022-08-16T11:26:06;11.30;94.00
40023;DHT22;25713;-35.352;149.036;2022-08-16T11:28:38;11.30;94.10
40023;DHT22;25713;-35.352;149.036;2022-08-16T11:31:10;11.30;93.90
40023;DHT22;25713;-35.352;149.036;2022-08-16T11:33:40;11.20;94.10
40023;DHT22;25713;-35.352;149.036;2022-08-16T11:36:10;11.20;93.80
40023;DHT22;25713;-35.352;149.036;2022-08-16T11:38:39;11.10;94.10
40023;DHT22;25713;-35.352;149.036;2022-08-16T11:41:09;11.10;94.30
40023;DHT22;25713;-35.352;149.036;2022-08-16T11:43:40;11.10;94.40
40023;DHT22;25713;-35.352;149.036;2022-08-16T11:46:14;11.10;94.40
40023;DHT22;25713;-35.352;149.036;2022-08-16T11:48:44;11.10;94.40
40023;DHT22;25713;-35.352;149.036;2022-08-16T11:51:14;11.10;94.40
40023;DHT22;25713;-35.352;149.036;2022-08-16T11:53:43;11.10;94.40
40023;DHT22;25713;-35.352;149.036;2022-08-16T11:56:12;11.10;94.70
40023;DHT22;25713;-35.352;149.036;2022-08-16T11:58:42;11.10;94.40
40023;DHT22;25713;-35.352;149.036;2022-08-16T12:01:13;11.10;94.30
40023;DHT22;25713;-35.352;149.036;2022-08-16T12:03:43;11.10;94.40
40023;DHT22;25713;-35.352;149.036;2022-08-16T12:06:15;11.10;94.30
40023;DHT22;25713;-35.352;149.036;2022-08-16T12:08:47;11.10;94.20
40023;DHT22;25713;-35.352;149.036;2022-08-16T12:11:17;11.10;94.20
40023;DHT22;25713;-35.352;149.036;2022-08-16T12:13:47;11.10;94.30
40023;DHT22;25713;-35.352;149.036;2022-08-16T12:16:19;11.10;94.20
40023;DHT22;25713;-35.352;149.036;2022-08-16T12:18:49;11.10;94.10
40023;DHT22;25713;-35.352;149.036;2022-08-16T12:21:18;11.10;94.50
40023;DHT22;25713;-35.352;149.036;2022-08-16T12:23:48;11.10;94.20
40023;DHT22;25713;-35.352;149.036;2022-08-16T12:26:17;11.10;94.00
40023;DHT22;25713;-35.352;149.036;2022-08-16T12:28:47;11.10;93.90
40023;DHT22;25713;-35.352;149.036;2022-08-16T12:31:19;11.10;93.90
40023;DHT22;25713;-35.352;149.036;2022-08-16T12:33:47;11.10;94.00
40023;DHT22;25713;-35.352;149.036;2022-08-16T12:36:17;11.10;94.20
40023;DHT22;25713;-35.352;149.036;2022-08-16T12:38:46;11.10;93.90
40023;DHT22;25713;-35.352;149.036;2022-08-16T12:41:16;11.10;94.00
40023;DHT22;25713;-35.352;149.036;2022-08-16T12:43:46;11.10;94.10
40023;DHT22;25713;-35.352;149.036;2022-08-16T12:46:18;11.10;94.10
40023;DHT22;25713;-35.352;149.036;2022-08-16T12:48:48;11.10;94.00
40023;DHT22;25713;-35.352;149.036;2022-08-16T12:51:20;11.10;93.80
40023;DHT22;25713;-35.352;149.036;2022-08-16T12:53:50;11.10;93.80
40023;DHT22;25713;-35.352;149.036;2022-08-16T12:56:23;11.00;93.80
40023;DHT22;25713;-35.352;149.036;2022-08-16T12:58:53;11.00;93.90
40023;DHT22;25713;-35.352;149.036;2022-08-16T13:01:27;11.00;94.30
40023;DHT22;25713;-35.352;149.036;2022-08-16T13:03:58;11.10;94.50
40023;DHT22;25713;-35.352;149.036;2022-08-16T13:06:29;11.10;94.80
40023;DHT22;25713;-35.352;149.036;2022-08-16T13:08:58;11.00;94.20
40023;DHT22;25713;-35.352;149.036;2022-08-16T13:11:33;11.00;94.00
40023;DHT22;25713;-35.352;149.036;2022-08-16T13:14:04;11.10;94.00
40023;DHT22;25713;-35.352;149.036;2022-08-16T13:16:37;11.00;94.10
40023;DHT22;25713;-35.352;149.036;2022-08-16T13:19:06;11.00;94.50
40023;DHT22;25713;-35.352;149.036;2022-08-16T13:21:36;11.00;94.80
40023;DHT22;25713;-35.352;149.036;2022-08-16T13:24:06;11.00;94.70
40023;DHT22;25713;-35.352;149.036;2022-08-16T13:26:35;11.00;94.60
40023;DHT22;25713;-35.352;149.036;2022-08-16T13:29:05;11.00;94.40
40023;DHT22;25713;-35.352;149.036;2022-08-16T13:31:36;11.00;94.90
40023;DHT22;25713;-35.352;149.036;2022-08-16T13:34:06;11.00;94.70
40023;DHT22;25713;-35.352;149.036;2022-08-16T13:36:36;11.00;95.00
40023;DHT22;25713;-35.352;149.036;2022-08-16T13:39:06;11.00;94.80
40023;DHT22;25713;-35.352;149.036;2022-08-16T13:41:35;11.00;94.50
40023;DHT22;25713;-35.352;149.036;2022-08-16T13:44:05;11.00;94.30
40023;DHT22;25713;-35.352;149.036;2022-08-16T13:46:37;11.00;94.50
40023;DHT22;25713;-35.352;149.036;2022-08-16T13:49:06;11.00;94.50
40023;DHT22;25713;-35.352;149.036;2022-08-16T13:51:35;11.00;94.70
40023;DHT22;25713;-35.352;149.036;2022-08-16T13:54:05;10.90;94.90
40023;DHT22;25713;-35.352;149.036;2022-08-16T13:56:36;11.00;94.80
40023;DHT22;25713;-35.352;149.036;2022-08-16T13:59:06;10.90;94.60
40023;DHT22;25713;-35.352;149.036;2022-08-16T14:01:37;10.90;94.40
40023;DHT22;25713;-35.352;149.036;2022-08-16T14:04:07;10.90;94.40
40023;DHT22;25713;-35.352;149.036;2022-08-16T14:06:36;10.90;94.50
40023;DHT22;25713;-35.352;149.036;2022-08-16T14:09:06;10.90;94.80
40023;DHT22;25713;-35.352;149.036;2022-08-16T14:11:36;10.90;95.60
40023;DHT22;25713;-35.352;149.036;2022-08-16T14:14:05;10.90;96.20
40023;DHT22;25713;-35.352;149.036;2022-08-16T14:16:37;11.00;96.40
40023;DHT22;25713;-35.352;149.036;2022-08-16T14:19:06;10.90;96.70
40023;DHT22;25713;-35.352;149.036;2022-08-16T14:21:36;10.90;96.90
40023;DHT22;25713;-35.352;149.036;2022-08-16T14:24:06;10.90;96.10
40023;DHT22;25713;-35.352;149.036;2022-08-16T14:26:35;10.90;95.80
40023;DHT22;25713;-35.352;149.036;2022-08-16T14:29:04;10.90;96.20
40023;DHT22;25713;-35.352;149.036;2022-08-16T14:31:36;10.90;96.30
40023;DHT22;25713;-35.352;149.036;2022-08-16T14:34:06;10.90;96.70
40023;DHT22;25713;-35.352;149.036;2022-08-16T14:36:36;10.90;96.70
40023;DHT22;25713;-35.352;149.036;2022-08-16T14:39:05;10.90;96.40
40023;DHT22;25713;-35.352;149.036;2022-08-16T14:41:35;10.90;96.70
40023;DHT22;25713;-35.352;149.036;2022-08-16T14:44:04;10.80;97.50
40023;DHT22;25713;-35.352;149.036;2022-08-16T14:46:36;10.90;96.70
40023;DHT22;25713;-35.352;149.036;2022-08-16T14:49:06;10.90;97.60
40023;DHT22;25713;-35.352;149.036;2022-08-16T14:51:35;10.80;97.40
40023;DHT22;25713;-35.352;149.036;2022-08-16T15:55:19;10.30;98.40
40023;DHT22;25713;-35.352;149.036;2022-08-16T15:57:48;10.30;99.00
40023;DHT22;25713;-35.352;149.036;2022-08-16T16:00:19;10.30;98.60
40023;DHT22;25713;-35.352;149.036;2022-08-16T16:02:50;10.30;99.00
40023;DHT22;25713;-35.352;149.036;2022-08-16T16:05:27;10.40;98.30
40023;DHT22;25713;-35.352;149.036;2022-08-16T16:07:56;10.40;98.40
40023;DHT22;25713;-35.352;149.036;2022-08-16T16:10:28;10.40;98.70
40023;DHT22;25713;-35.352;149.036;2022-08-16T16:12:59;10.40;99.00